This is the latest recevied weather packets stored in our database for station/object K6HFP. If no packets are shown the sender has not sent any weather packets the latest 1 day(s).
| Time | Temp. | Humidity | Pressure | Rain* | Wind** | Luminosity | Snow |
|---|---|---|---|---|---|---|---|
| 1836274844 | 20.56° C | 69% | 1012.9 hPa | 0 mm | 1.34 m/s, 336° | 0 W/m² | - |
| 1836274541 | 20.56° C | 71% | 1013.1 hPa | 0 mm | 0.45 m/s, 70° | 0 W/m² | - |
| 1836274395 | 20.56° C | 68% | 1013 hPa | 0 mm | 0.89 m/s, 254° | 0 W/m² | - |
| 1836274241 | 20.56° C | 71% | 1013 hPa | 0 mm | 0.89 m/s, 67° | 0 W/m² | - |
| 1836273940 | 20.56° C | 71% | 1013.1 hPa | 0 mm | 0 m/s | 0 W/m² | - |
| 1778051393 | 13.89° C | 82% | 1017.3 hPa | 0 mm | 0 m/s | 0 W/m² | - |
| 1778051090 | 13.89° C | 82% | 1016.9 hPa | 0 mm | 0 m/s | 0 W/m² | - |
| 1778050787 | 14.44° C | 81% | 1017.2 hPa | 0 mm | 0 m/s | 0 W/m² | - |
| 1778050485 | 14.44° C | 81% | 1016.9 hPa | 0 mm | 0 m/s | 0 W/m² | - |
| 1778050181 | 14.44° C | 81% | 1017.2 hPa | 0 mm | 0 m/s | 0 W/m² | - |
| 1778049877 | 14.44° C | 81% | 1017 hPa | 0 mm | 0.45 m/s, 150° | 0 W/m² | - |
| 1778049574 | 14.44° C | 81% | 1017 hPa | 0 mm | 0 m/s | 0 W/m² | - |
| 1778049272 | 14.44° C | 81% | 1016.9 hPa | 0 mm | 0.89 m/s, 124° | 0 W/m² | - |
| 1778048969 | 14.44° C | 81% | 1016.8 hPa | 0 mm | 0.45 m/s, 86° | 0 W/m² | - |
| 1778048668 | 14.44° C | 80% | 1016.7 hPa | 0 mm | 0.45 m/s, 104° | 0 W/m² | - |
| 1778048363 | 14.44° C | 80% | 1017 hPa | 0 mm | 0 m/s | 0 W/m² | - |
| 1778048060 | 14.44° C | 80% | 1016.8 hPa | 0 mm | 0.45 m/s, 95° | 0 W/m² | - |
| 1778047758 | 14.44° C | 80% | 1016.8 hPa | 0 mm | 0 m/s | 0 W/m² | - |
| 1778047456 | 14.44° C | 80% | 1016.6 hPa | 0 mm | 0.89 m/s, 109° | 0 W/m² | - |
| 1778047153 | 14.44° C | 79% | 1016.5 hPa | 0 mm | 0.45 m/s, 111° | 0 W/m² | - |
| 1778046850 | 14.44° C | 79% | 1016.5 hPa | 0 mm | 0 m/s | 0 W/m² | - |
| 1778046546 | 14.44° C | 79% | 1016.5 hPa | 0 mm | 0.45 m/s, 97° | 0 W/m² | - |
| 1778046243 | 14.44° C | 78% | 1016.3 hPa | 0 mm | 0.45 m/s, 115° | 0 W/m² | - |
| 1778045939 | 14.44° C | 78% | 1016.4 hPa | 0 mm | 0.45 m/s, 120° | 0 W/m² | - |
| 1778045638 | 14.44° C | 79% | 1016.4 hPa | 0 mm | 0.45 m/s, 89° | 0 W/m² | - |
* Rain latest hour (hover to see other rain measurements)
** Current wind speed in m/s (hover to see current wind gust speed)